Aurora, Indiana
Current Conditions -  °F | °C
As of 3:52 AM on Friday 31 Oct 2014 (Local Time) from KCVG Reporting Station
Light Rain Light Rain  
Wind Chill: 44°   Ceiling: 5500
Heat Index: 44°   Visibility: 8mi
Dew Point: 40°   Wind: 0mph
Humidity: 85%   Direction: NA
Pressure: 30.01"   Gusts: NA
Location:  39.06°N, 84.9°W
Report Text: KCVG 310752Z 00000KT 8SM -RA SCT038 OVC055 07/04 A3001 RMK AO2 SLP161 P0001 T00670044
Loading
Personal Weather Stations






























Interactive Weather Map New forecast layout! Learn more

10-Day Weather Forecast

Advertisements
Track Severe Weather on mobile